Fuenterrabia, Spain
Current Conditions -  °F | °C
As of 9:00 AM on Saturday 29 Nov 2014 (Local Time) from LESO Reporting Station
Light Rain Light Rain  
Wind Chill: 57°   Ceiling: Unl
Heat Index: 57°   Visibility: 6mi
Dew Point: 55°   Wind: 1mph
Humidity: 94%   Direction: NA
Pressure: 29.47"   Gusts: NA
Location:  43.37°N, 1.79°W
Report Text: LESO 290800Z VRB01KT 9999 -RA NSC 14/13 Q0998
Loading
Personal Weather Stations






























Interactive Weather Map New forecast layout! Learn more

10-Day Weather Forecast

Advertisements
Track Severe Weather on mobile